createdAt,value
2019-05-15T00:02:24.349Z,99.90
2019-05-15T00:04:54.809Z,99.90
2019-05-15T00:07:25.186Z,99.90
2019-05-15T00:09:55.540Z,99.90
2019-05-15T00:12:28.286Z,99.90
2019-05-15T00:14:58.186Z,99.90
2019-05-15T00:17:28.602Z,99.90
2019-05-15T00:19:58.861Z,99.90
2019-05-15T00:22:29.288Z,99.90
2019-05-15T00:24:59.637Z,99.90
2019-05-15T00:27:29.905Z,99.90
2019-05-15T00:30:00.284Z,99.90
2019-05-15T00:32:30.818Z,99.90
2019-05-15T00:35:01.052Z,99.90
2019-05-15T00:37:38.717Z,99.90
2019-05-15T00:40:09.311Z,99.90
2019-05-15T00:42:39.693Z,99.90
2019-05-15T00:45:11.337Z,99.90
2019-05-15T00:47:41.757Z,99.90
2019-05-15T00:50:13.173Z,99.90
2019-05-15T00:52:43.597Z,99.90
2019-05-15T00:55:14.461Z,99.90
2019-05-15T00:57:44.728Z,99.90
2019-05-15T01:00:18.652Z,99.90
2019-05-15T01:02:48.780Z,99.90
2019-05-15T01:05:19.074Z,99.90
2019-05-15T01:07:49.405Z,99.90
2019-05-15T01:10:19.769Z,99.90
2019-05-15T01:12:50.141Z,99.90
2019-05-15T01:15:20.562Z,99.90
2019-05-15T01:17:50.821Z,99.90
2019-05-15T01:20:21.185Z,99.90
2019-05-15T01:22:51.514Z,99.90
2019-05-15T01:25:22.049Z,99.90
2019-05-15T01:27:52.486Z,99.90
2019-05-15T01:30:22.953Z,99.90
2019-05-15T01:32:53.459Z,99.90
2019-05-15T01:35:23.809Z,99.90
2019-05-15T01:37:54.150Z,99.90
2019-05-15T01:40:24.590Z,99.90
2019-05-15T01:42:54.901Z,99.90
2019-05-15T01:45:25.225Z,99.90
2019-05-15T01:47:55.496Z,99.90
2019-05-15T01:50:25.805Z,99.90
2019-05-15T01:52:56.062Z,99.90
2019-05-15T01:55:28.451Z,99.90
2019-05-15T01:57:59.073Z,99.90
2019-05-15T02:00:29.502Z,99.90
2019-05-15T02:03:00.233Z,99.90
2019-05-15T02:05:33.201Z,99.90
2019-05-15T02:08:04.610Z,99.90
2019-05-15T02:10:34.966Z,99.90
2019-05-15T02:13:10.741Z,99.90
2019-05-15T02:15:43.513Z,99.90
2019-05-15T02:18:13.777Z,99.90
2019-05-15T02:20:44.441Z,99.90
2019-05-15T02:23:14.780Z,99.90
2019-05-15T02:25:45.079Z,99.90
2019-05-15T02:28:15.326Z,99.90
2019-05-15T02:30:45.681Z,99.90
2019-05-15T02:33:18.651Z,99.90
2019-05-15T02:35:50.168Z,99.90
2019-05-15T02:38:20.359Z,99.90
2019-05-15T02:40:50.895Z,99.90
2019-05-15T02:43:21.509Z,99.90
2019-05-15T02:45:51.965Z,99.90
2019-05-15T02:48:22.842Z,99.90
2019-05-15T02:50:53.253Z,99.90
2019-05-15T02:53:23.621Z,99.90
2019-05-15T02:55:55.031Z,99.90
2019-05-15T02:58:25.401Z,99.90
2019-05-15T03:00:58.906Z,99.90
2019-05-15T03:03:29.539Z,99.90
2019-05-15T03:06:00.509Z,99.90
2019-05-15T03:08:31.015Z,99.90
2019-05-15T03:11:01.632Z,99.90
2019-05-15T03:13:32.069Z,99.90
2019-05-15T03:16:03.710Z,99.90
2019-05-15T03:18:34.294Z,99.90
2019-05-15T03:21:04.698Z,99.90
2019-05-15T03:23:35.126Z,99.90
2019-05-15T03:26:08.620Z,99.90
2019-05-15T03:28:39.511Z,99.90
2019-05-15T03:31:32.684Z,99.90
2019-05-15T03:33:45.540Z,99.90
2019-05-15T03:36:14.455Z,99.90
2019-05-15T03:38:45.762Z,99.90
2019-05-15T03:41:19.448Z,99.90
2019-05-15T03:43:49.739Z,99.90
2019-05-15T03:46:20.347Z,99.90
2019-05-15T03:48:51.665Z,99.90
2019-05-15T03:51:22.105Z,99.90
2019-05-15T03:53:52.564Z,99.90
2019-05-15T03:56:23.025Z,99.90
2019-05-15T03:58:53.453Z,99.90
2019-05-15T04:01:43.775Z,99.90
2019-05-15T04:04:14.600Z,99.90
2019-05-15T04:06:45.002Z,99.90
2019-05-15T04:09:18.716Z,99.90
2019-05-15T04:11:49.761Z,99.90
2019-05-15T04:14:19.619Z,99.90
2019-05-15T04:16:50.067Z,99.90
2019-05-15T04:19:20.493Z,99.90
2019-05-15T04:21:50.916Z,99.90
2019-05-15T04:24:21.483Z,99.90
2019-05-15T04:26:52.599Z,99.90
2019-05-15T04:29:22.959Z,99.90
2019-05-15T04:32:01.037Z,99.90
2019-05-15T04:34:25.385Z,99.90
2019-05-15T04:36:58.559Z,99.90
2019-05-15T04:39:29.563Z,99.90
2019-05-15T04:41:59.685Z,99.90
2019-05-15T04:44:30.175Z,99.90
2019-05-15T04:47:00.522Z,99.90
2019-05-15T04:49:31.242Z,99.90
2019-05-15T04:52:03.631Z,99.90
2019-05-15T04:54:33.656Z,99.90
2019-05-15T04:57:05.375Z,99.90
2019-05-15T04:59:38.705Z,99.90
2019-05-15T05:02:19.458Z,99.90
2019-05-15T05:04:40.042Z,99.90
2019-05-15T05:07:11.842Z,99.90
2019-05-15T05:09:43.321Z,99.90
2019-05-15T05:12:13.755Z,99.90
2019-05-15T05:14:44.286Z,99.90
2019-05-15T05:17:14.647Z,99.90
2019-05-15T05:19:45.055Z,99.90
2019-05-15T05:22:15.422Z,99.90
2019-05-15T05:24:47.719Z,99.90
2019-05-15T05:27:18.276Z,99.90
2019-05-15T05:29:48.830Z,99.90
2019-05-15T05:32:31.390Z,99.90
2019-05-15T05:34:51.307Z,99.90
2019-05-15T05:37:21.733Z,99.90
2019-05-15T05:39:52.093Z,99.90
2019-05-15T05:42:22.544Z,99.90
2019-05-15T05:44:52.831Z,99.90
2019-05-15T05:47:23.178Z,99.90
2019-05-15T05:49:53.705Z,99.90
2019-05-15T05:52:24.138Z,99.90
2019-05-15T05:54:54.494Z,99.90
2019-05-15T05:57:24.814Z,99.90
2019-05-15T05:59:55.222Z,99.90
2019-05-15T06:02:28.036Z,99.90
2019-05-15T06:04:58.604Z,99.90
2019-05-15T06:07:29.081Z,99.90
2019-05-15T06:09:59.486Z,99.90
2019-05-15T06:12:29.930Z,99.90
2019-05-15T06:15:00.174Z,99.90
2019-05-15T06:17:32.768Z,99.90
2019-05-15T06:20:03.162Z,99.90
2019-05-15T06:22:33.531Z,99.90
2019-05-15T06:25:05.337Z,99.90
2019-05-15T06:27:35.774Z,99.90
2019-05-15T06:30:08.624Z,99.90
2019-05-15T06:32:39.943Z,99.90
2019-05-15T06:35:11.242Z,99.90
2019-05-15T06:37:41.864Z,99.90
2019-05-15T06:40:12.291Z,99.90
2019-05-15T06:42:42.642Z,99.90
2019-05-15T06:45:13.370Z,99.90
2019-05-15T06:47:44.348Z,99.90
2019-05-15T06:50:18.011Z,99.90
2019-05-15T06:52:48.650Z,99.90
2019-05-15T06:55:20.055Z,99.90
2019-05-15T06:57:50.320Z,98.90
2019-05-15T07:00:20.770Z,97.30
2019-05-15T07:02:51.220Z,95.40
2019-05-15T07:05:21.659Z,94.50
2019-05-15T07:07:52.005Z,94.00
2019-05-15T07:10:22.526Z,91.90
2019-05-15T07:12:52.850Z,85.90
2019-05-15T07:15:24.096Z,86.00
2019-05-15T07:17:54.534Z,84.80
2019-05-15T07:20:24.959Z,79.00
2019-05-15T07:22:58.640Z,81.80
2019-05-15T07:25:29.462Z,75.70
2019-05-15T07:28:01.007Z,73.60
2019-05-15T07:30:31.598Z,74.40
2019-05-15T07:33:02.531Z,72.00
2019-05-15T07:35:32.882Z,68.90
2019-05-15T07:38:03.187Z,68.40
2019-05-15T07:40:33.602Z,69.00
2019-05-15T07:43:04.150Z,69.50
2019-05-15T07:45:34.595Z,70.30
2019-05-15T07:48:05.596Z,66.40
2019-05-15T07:50:38.454Z,66.10
2019-05-15T07:53:12.999Z,66.60
2019-05-15T07:55:43.288Z,65.70
2019-05-15T07:58:13.600Z,68.10
2019-05-15T08:00:44.079Z,66.10
2019-05-15T08:03:14.549Z,67.10
2019-05-15T08:05:58.038Z,63.70
2019-05-15T08:08:18.468Z,65.00
2019-05-15T08:10:49.344Z,61.50
2019-05-15T08:13:19.816Z,61.20
2019-05-15T08:15:50.192Z,58.30
2019-05-15T08:18:20.544Z,58.30
2019-05-15T08:20:51.098Z,60.80
2019-05-15T08:23:21.508Z,62.10
2019-05-15T08:25:52.015Z,60.50
2019-05-15T08:28:22.387Z,59.50
2019-05-15T08:30:52.762Z,58.50
2019-05-15T08:33:23.075Z,59.10
2019-05-15T08:35:53.435Z,58.80
2019-05-15T08:38:23.932Z,59.80
2019-05-15T08:40:54.436Z,57.80
2019-05-15T08:43:24.881Z,59.60
2019-05-15T08:45:55.323Z,58.70
2019-05-15T08:48:27.680Z,58.90
2019-05-15T08:50:58.026Z,54.20
2019-05-15T08:53:28.898Z,54.20
2019-05-15T08:56:00.439Z,53.70
2019-05-15T08:58:30.855Z,54.80
2019-05-15T09:01:01.338Z,54.50
2019-05-15T09:03:32.799Z,54.20
2019-05-15T09:06:03.207Z,53.30
2019-05-15T09:08:33.507Z,54.10
2019-05-15T09:11:09.646Z,53.50
2019-05-15T09:13:43.154Z,54.30
2019-05-15T09:16:12.271Z,55.40
2019-05-15T09:18:42.611Z,56.30
2019-05-15T09:21:13.052Z,55.40
2019-05-15T09:23:43.403Z,55.60
2019-05-15T09:26:13.752Z,54.90
2019-05-15T09:28:44.116Z,53.90
2019-05-15T09:31:22.188Z,54.90
2019-05-15T09:33:52.544Z,56.00
2019-05-15T09:36:22.987Z,55.10
2019-05-15T09:38:53.471Z,54.30
2019-05-15T09:41:23.923Z,55.50
2019-05-15T09:43:57.759Z,56.60
2019-05-15T09:46:29.148Z,54.80
2019-05-15T09:48:59.777Z,54.90
2019-05-15T09:51:30.224Z,55.30
2019-05-15T09:54:00.690Z,55.40
2019-05-15T09:56:31.544Z,54.40
2019-05-15T09:59:01.944Z,53.80
2019-05-15T10:01:32.313Z,55.30
2019-05-15T10:04:05.277Z,56.40
2019-05-15T10:06:35.739Z,55.60
2019-05-15T10:09:09.077Z,56.00
2019-05-15T10:11:39.348Z,56.30
2019-05-15T10:14:10.049Z,55.50
2019-05-15T10:16:40.516Z,56.30
2019-05-15T10:19:10.896Z,57.60
2019-05-15T10:21:41.308Z,55.90
2019-05-15T10:24:11.756Z,55.70
2019-05-15T10:26:42.180Z,55.40
2019-05-15T10:29:12.604Z,56.60
2019-05-15T10:31:42.984Z,58.30
2019-05-15T10:34:13.299Z,56.10
2019-05-15T10:36:43.737Z,56.00
2019-05-15T10:39:14.253Z,58.00
2019-05-15T10:41:44.616Z,56.00
2019-05-15T10:44:15.044Z,59.40
2019-05-15T10:46:48.066Z,57.70
2019-05-15T10:49:18.970Z,57.30
2019-05-15T10:51:49.528Z,58.30
2019-05-15T10:54:19.976Z,58.00
2019-05-15T10:56:50.668Z,59.60
2019-05-15T10:59:21.152Z,57.30
2019-05-15T11:01:51.510Z,57.90
2019-05-15T11:04:21.940Z,58.70
2019-05-15T11:06:52.397Z,60.00
2019-05-15T11:09:22.907Z,59.20
2019-05-15T11:11:53.258Z,58.70
2019-05-15T11:14:23.757Z,57.40
2019-05-15T11:16:54.045Z,57.70
2019-05-15T11:19:24.415Z,58.10
2019-05-15T11:21:54.820Z,57.40
2019-05-15T11:24:25.240Z,58.00
2019-05-15T11:26:56.223Z,56.80
2019-05-15T11:29:26.940Z,57.90
2019-05-15T11:31:58.080Z,57.30
2019-05-15T11:34:29.142Z,58.30
2019-05-15T11:36:59.749Z,58.60
2019-05-15T11:39:31.167Z,58.50
2019-05-15T11:42:01.464Z,58.80
2019-05-15T11:44:32.436Z,58.40
2019-05-15T11:47:04.025Z,60.10
2019-05-15T11:49:34.516Z,58.70
2019-05-15T11:52:04.967Z,59.00
2019-05-15T11:54:35.341Z,59.00
2019-05-15T11:57:08.630Z,58.10
2019-05-15T11:59:45.076Z,59.30
2019-05-15T12:02:11.078Z,60.00
2019-05-15T12:04:41.467Z,58.90
2019-05-15T12:07:11.880Z,60.30
2019-05-15T12:09:42.301Z,57.90
2019-05-15T12:12:12.699Z,60.40
2019-05-15T12:14:43.052Z,57.70
2019-05-15T12:17:15.575Z,56.30
2019-05-15T12:19:55.119Z,57.20
2019-05-15T12:22:17.564Z,56.50
2019-05-15T12:24:49.892Z,56.90
2019-05-15T12:27:20.068Z,56.90
2019-05-15T12:29:50.346Z,57.10
2019-05-15T12:32:28.703Z,58.50
2019-05-15T12:34:52.844Z,59.00
2019-05-15T12:37:23.273Z,59.50
2019-05-15T13:00:13.145Z,59.80
2019-05-15T13:02:43.488Z,59.60
2019-05-15T13:05:13.905Z,58.70
2019-05-15T13:07:44.292Z,59.20
2019-05-15T13:10:18.222Z,59.10
2019-05-15T13:13:00.819Z,56.90
2019-05-15T13:15:20.563Z,58.60
2019-05-15T13:17:52.773Z,59.10
2019-05-15T13:20:23.196Z,58.50
2019-05-15T13:22:53.604Z,59.10
2019-05-15T13:25:24.040Z,59.90
2019-05-15T13:27:54.513Z,59.00
2019-05-15T13:30:25.444Z,58.80
2019-05-15T13:32:58.589Z,60.60
2019-05-15T13:35:28.461Z,58.80
2019-05-15T13:37:58.990Z,60.80
2019-05-15T13:40:37.727Z,58.70
2019-05-15T13:43:01.484Z,59.00
2019-05-15T13:45:31.913Z,59.30
2019-05-15T13:48:02.281Z,60.20
2019-05-15T13:50:33.783Z,60.40
2019-05-15T13:53:04.276Z,59.40
2019-05-15T13:55:36.981Z,59.40
2019-05-15T13:58:08.675Z,60.10
2019-05-15T14:00:39.547Z,59.70
2019-05-15T14:03:10.187Z,60.40
2019-05-15T14:05:40.789Z,60.40
2019-05-15T14:08:11.222Z,60.70
2019-05-15T14:10:41.628Z,61.40
2019-05-15T14:13:12.010Z,60.50
2019-05-15T14:15:42.404Z,59.40
2019-05-15T14:18:14.173Z,59.00
2019-05-15T14:20:44.593Z,58.80
2019-05-15T14:23:15.029Z,59.50
2019-05-15T14:25:48.058Z,58.80
2019-05-15T14:28:18.928Z,60.00
2019-05-15T14:30:49.573Z,59.70
2019-05-15T14:33:19.978Z,59.30
2019-05-15T14:35:50.338Z,60.20
2019-05-15T14:38:20.733Z,60.50
2019-05-15T14:40:51.082Z,59.60
2019-05-15T14:43:21.532Z,59.90
2019-05-15T14:45:51.990Z,59.70
2019-05-15T14:48:22.636Z,60.80
2019-05-15T14:50:52.913Z,60.10
2019-05-15T14:53:23.354Z,59.80
2019-05-15T14:55:53.690Z,59.60
2019-05-15T14:58:24.017Z,59.70
2019-05-15T15:00:54.898Z,60.30
2019-05-15T15:03:25.420Z,60.00
2019-05-15T15:05:58.027Z,59.40
2019-05-15T15:08:29.198Z,59.80
2019-05-15T15:11:00.158Z,59.80
2019-05-15T15:13:30.992Z,59.40
2019-05-15T15:16:01.345Z,60.50
2019-05-15T15:18:31.741Z,60.30
2019-05-15T15:21:02.521Z,60.10
2019-05-15T15:23:32.936Z,60.10
2019-05-15T15:26:03.342Z,61.50
2019-05-15T15:28:33.682Z,61.90
2019-05-15T15:31:04.077Z,61.00
2019-05-15T15:33:34.415Z,61.40
2019-05-15T15:36:04.878Z,62.10
2019-05-15T15:38:40.875Z,62.30
2019-05-15T15:41:08.588Z,61.10
2019-05-15T15:43:39.105Z,62.00
2019-05-15T15:46:09.554Z,61.30
2019-05-15T15:48:40.008Z,61.90
2019-05-15T15:51:10.415Z,60.70
2019-05-15T15:53:40.873Z,60.00
2019-05-15T15:56:11.337Z,59.70
2019-05-15T15:58:41.693Z,60.00
2019-05-15T16:01:12.103Z,59.70
2019-05-15T16:03:42.566Z,60.80
2019-05-15T16:06:13.013Z,61.80
2019-05-15T16:08:53.188Z,61.10
2019-05-15T16:11:15.813Z,61.40
2019-05-15T16:13:46.564Z,62.30
2019-05-15T16:16:18.281Z,62.70
2019-05-15T16:18:49.164Z,61.70
2019-05-15T16:21:19.866Z,61.50
2019-05-15T16:23:51.154Z,61.00
2019-05-15T16:26:21.533Z,61.20
2019-05-15T16:28:51.947Z,61.50
2019-05-15T16:31:22.329Z,62.30
2019-05-15T16:33:52.634Z,60.90
2019-05-15T16:36:23.277Z,62.30
2019-05-15T16:39:05.050Z,62.80
2019-05-15T16:41:25.733Z,62.70
2019-05-15T16:43:57.833Z,62.20
2019-05-15T16:46:28.346Z,61.90
2019-05-15T16:48:59.085Z,61.30
2019-05-15T16:51:32.180Z,62.50
2019-05-15T16:56:39.981Z,62.50
2019-05-15T16:59:09.576Z,63.50
2019-05-15T17:01:40.310Z,64.20
2019-05-15T17:04:10.797Z,63.70
2019-05-15T17:06:41.081Z,64.20
2019-05-15T17:09:21.032Z,64.00
2019-05-15T17:11:43.629Z,64.80
2019-05-15T17:14:13.994Z,65.10
2019-05-15T17:16:44.613Z,65.60
2019-05-15T17:19:14.966Z,66.00
2019-05-15T17:21:48.007Z,64.70
2019-05-15T17:24:17.516Z,64.80
2019-05-15T17:26:48.850Z,64.60
2019-05-15T17:29:20.178Z,65.10
2019-05-15T17:31:50.601Z,64.70
2019-05-15T17:34:20.884Z,64.70
2019-05-15T17:36:51.230Z,64.80
2019-05-15T17:39:33.622Z,64.80
2019-05-15T17:41:53.738Z,65.30
2019-05-15T17:44:24.542Z,65.40
2019-05-15T17:46:54.945Z,65.30
2019-05-15T17:49:25.302Z,65.60
2019-05-15T17:51:55.657Z,66.10
2019-05-15T17:54:26.071Z,65.30
2019-05-15T17:56:58.438Z,65.30
2019-05-15T17:59:28.786Z,65.70
2019-05-15T18:01:59.637Z,65.80
2019-05-15T18:04:30.132Z,64.80
2019-05-15T18:07:00.498Z,65.50
2019-05-15T18:09:30.878Z,64.80
2019-05-15T18:14:42.294Z,66.10
2019-05-15T18:17:12.715Z,66.00
2019-05-15T18:19:43.254Z,66.10
2019-05-15T18:22:13.686Z,67.00
2019-05-15T18:24:44.046Z,67.10
2019-05-15T18:27:14.417Z,66.00
2019-05-15T18:29:45.216Z,66.60
2019-05-15T18:32:18.768Z,66.00
2019-05-15T18:34:48.900Z,66.70
2019-05-15T18:37:19.382Z,67.10
2019-05-15T18:40:02.159Z,67.10
2019-05-15T18:42:22.474Z,67.80
2019-05-15T18:44:52.787Z,68.90
2019-05-15T18:47:23.165Z,68.90
2019-05-15T18:50:05.781Z,70.20
2019-05-15T18:52:25.491Z,69.40
2019-05-15T18:54:58.314Z,69.60
2019-05-15T18:57:28.234Z,69.60
2019-05-15T18:59:58.598Z,70.00
2019-05-15T19:02:29.064Z,69.40
2019-05-15T19:04:59.442Z,70.00
2019-05-15T19:07:29.786Z,70.60
2019-05-15T19:10:00.250Z,71.10
2019-05-15T19:12:30.687Z,71.00
2019-05-15T19:15:01.506Z,72.60
2019-05-15T19:17:31.951Z,75.60
2019-05-15T19:20:02.341Z,75.00
2019-05-15T19:22:32.759Z,78.00
2019-05-15T19:25:03.240Z,76.40
2019-05-15T19:27:33.738Z,76.70
2019-05-15T19:30:04.856Z,75.80
2019-05-15T19:32:35.566Z,75.20
2019-05-15T19:35:14.251Z,77.50
2019-05-15T19:37:44.542Z,76.80
2019-05-15T19:40:15.434Z,78.10
2019-05-15T19:42:45.930Z,81.20
2019-05-15T19:45:16.359Z,82.40
2019-05-15T19:47:47.816Z,83.50
2019-05-15T19:50:19.435Z,81.90
2019-05-15T19:52:49.887Z,84.00
2019-05-15T19:55:21.103Z,83.30
2019-05-15T19:57:51.575Z,82.50
2019-05-15T20:00:22.087Z,84.40
2019-05-15T20:02:52.564Z,84.70
2019-05-15T20:05:23.034Z,86.10
2019-05-15T20:07:53.471Z,87.30
2019-05-15T20:10:25.035Z,90.30
2019-05-15T20:12:55.327Z,92.40
2019-05-15T20:15:25.771Z,92.40
2019-05-15T20:17:56.891Z,93.00
2019-05-15T20:20:28.344Z,93.70
2019-05-15T20:23:00.528Z,94.30
2019-05-15T20:25:32.272Z,94.40
2019-05-15T20:28:03.043Z,95.00
2019-05-15T20:30:33.504Z,94.70
2019-05-15T20:33:04.017Z,96.30
2019-05-15T20:35:34.992Z,96.20
2019-05-15T20:38:05.494Z,94.80
2019-05-15T20:40:36.039Z,96.20
2019-05-15T20:43:08.199Z,93.60
2019-05-15T20:45:38.483Z,95.30
2019-05-15T20:48:09.047Z,96.30
2019-05-15T20:50:40.119Z,93.60
2019-05-15T20:53:10.931Z,95.40
2019-05-15T20:55:41.359Z,95.80
2019-05-15T20:58:11.679Z,96.40
2019-05-15T21:00:42.158Z,96.60
2019-05-15T21:03:12.551Z,97.30
2019-05-15T21:05:43.303Z,99.00
2019-05-15T21:08:13.748Z,99.70
2019-05-15T21:10:44.212Z,99.90
2019-05-15T21:13:14.503Z,99.90
2019-05-15T21:15:47.879Z,99.90
2019-05-15T21:18:19.522Z,99.90
2019-05-15T21:20:49.939Z,99.90
2019-05-15T21:23:23.983Z,99.90
2019-05-15T21:25:54.336Z,99.90
2019-05-15T21:28:24.774Z,99.90
2019-05-15T21:30:55.061Z,99.90
2019-05-15T21:33:25.487Z,99.90
2019-05-15T21:35:58.222Z,99.90
2019-05-15T21:38:28.500Z,99.90
2019-05-15T21:40:58.996Z,99.90
2019-05-15T21:43:29.371Z,99.90
2019-05-15T21:45:59.795Z,99.90
2019-05-15T21:48:30.144Z,99.90
2019-05-15T21:51:00.664Z,99.90
2019-05-15T21:53:31.022Z,99.90
2019-05-15T21:56:01.445Z,99.90
2019-05-15T21:58:31.886Z,99.90
2019-05-15T22:01:02.539Z,99.90
2019-05-15T22:03:34.683Z,99.90
2019-05-15T22:06:05.311Z,99.90
2019-05-15T22:08:38.450Z,99.90
2019-05-15T22:11:09.072Z,99.90
2019-05-15T22:13:39.621Z,99.90
2019-05-15T22:22:25.770Z,99.90
2019-05-15T22:24:56.295Z,99.90
2019-05-15T22:27:28.495Z,99.90
2019-05-15T22:29:58.875Z,99.90
2019-05-15T22:32:29.593Z,99.90
2019-05-15T22:37:43.566Z,99.90
2019-05-15T22:43:19.553Z,99.90
2019-05-15T22:45:50.969Z,99.90
2019-05-15T22:48:22.522Z,99.90
2019-05-15T22:50:52.867Z,99.90
2019-05-15T22:53:23.734Z,99.90
2019-05-15T22:55:55.210Z,99.90
2019-05-15T22:58:25.508Z,99.90
2019-05-15T23:00:55.838Z,99.90
2019-05-15T23:03:28.243Z,99.90
2019-05-15T23:05:59.502Z,99.90
2019-05-15T23:08:29.842Z,99.90
2019-05-15T23:11:00.207Z,99.90
2019-05-15T23:13:30.675Z,99.90
2019-05-15T23:16:05.499Z,99.90
2019-05-15T23:19:12.673Z,99.90
2019-05-15T23:21:48.645Z,99.90
2019-05-15T23:24:20.238Z,99.90
2019-05-15T23:26:50.706Z,99.90
2019-05-15T23:29:25.447Z,99.90
2019-05-15T23:31:58.244Z,99.90
2019-05-15T23:34:28.096Z,99.90
2019-05-15T23:36:58.674Z,99.90
2019-05-15T23:39:29.090Z,99.90
2019-05-15T23:41:59.448Z,99.90
2019-05-15T23:44:29.804Z,99.90
2019-05-15T23:47:00.157Z,99.90
2019-05-15T23:49:30.490Z,99.90
2019-05-15T23:52:02.359Z,99.90
2019-05-15T23:54:32.742Z,99.90
2019-05-15T23:57:09.458Z,99.90
2019-05-15T23:59:39.895Z,99.90
